createdAt,value
2019-06-15T00:00:01.968Z,1011.14
2019-06-15T00:05:03.064Z,1010.94
2019-06-15T00:10:01.921Z,1010.68
2019-06-15T00:15:02.710Z,1010.43
2019-06-15T00:20:03.156Z,1010.38
2019-06-15T00:25:02.667Z,1010.38
2019-06-15T00:30:03.116Z,1010.29
2019-06-15T00:35:02.639Z,1010.43
2019-06-15T00:40:03.341Z,1010.35
2019-06-15T00:45:02.999Z,1010.38
2019-06-15T00:50:02.440Z,1010.4
2019-06-15T00:55:02.985Z,1010.29
2019-06-15T01:00:02.432Z,1010.21
2019-06-15T01:05:02.950Z,1010.11
2019-06-15T01:10:03.489Z,1010.23
2019-06-15T01:15:03.007Z,1009.99
2019-06-15T01:20:02.522Z,1009.78
2019-06-15T01:25:05.888Z,1009.49
2019-06-15T01:30:02.588Z,1009.45
2019-06-15T01:35:03.137Z,1009.27
2019-06-15T01:40:02.591Z,1009.0
2019-06-15T01:45:03.104Z,1008.8
2019-06-15T01:50:02.816Z,1008.68
2019-06-15T01:55:02.476Z,1008.62
2019-06-15T02:00:03.177Z,1008.69
2019-06-15T02:05:02.734Z,1009.36
2019-06-15T02:10:03.190Z,1009.57
2019-06-15T02:15:02.755Z,1009.9
2019-06-15T02:20:03.499Z,1009.92
2019-06-15T02:25:03.069Z,1009.89
2019-06-15T02:30:02.519Z,1009.97
2019-06-15T02:35:02.994Z,1009.91
2019-06-15T02:40:02.457Z,1009.99
2019-06-15T02:45:02.938Z,1009.92
2019-06-15T02:50:03.433Z,1009.92
2019-06-15T02:55:02.957Z,1009.76
2019-06-15T03:00:01.585Z,1009.66
2019-06-15T03:05:03.187Z,1009.74
2019-06-15T03:10:01.955Z,1009.69
2019-06-15T03:15:03.492Z,1009.74
2019-06-15T03:20:03.018Z,1009.85
2019-06-15T03:25:02.475Z,1009.83
2019-06-15T03:30:02.991Z,1009.94
2019-06-15T03:35:02.422Z,1009.85
2019-06-15T03:40:02.890Z,1009.19
2019-06-15T03:45:03.394Z,1008.41
2019-06-15T03:50:02.907Z,1008.28
2019-06-15T03:55:03.362Z,1008.46
2019-06-15T04:00:02.886Z,1008.56
2019-06-15T04:05:03.448Z,1008.93
2019-06-15T04:10:02.973Z,1008.9
2019-06-15T04:15:02.462Z,1008.73
2019-06-15T04:20:03.005Z,1008.78
2019-06-15T04:25:02.644Z,1009.05
2019-06-15T04:30:02.476Z,1009.8
2019-06-15T04:35:03.012Z,1010.21
2019-06-15T04:40:02.562Z,1010.0
2019-06-15T04:45:03.086Z,1010.01
2019-06-15T04:50:02.561Z,1010.11
2019-06-15T04:55:03.144Z,1009.97
2019-06-15T05:00:02.584Z,1010.03
2019-06-15T05:05:03.041Z,1009.91
2019-06-15T05:10:02.485Z,1009.95
2019-06-15T05:15:02.970Z,1009.73
2019-06-15T05:20:02.491Z,1009.78
2019-06-15T05:25:03.044Z,1010.0
2019-06-15T05:30:02.479Z,1010.1
2019-06-15T05:35:02.947Z,1010.01
2019-06-15T05:40:03.446Z,1009.94
2019-06-15T05:45:02.955Z,1009.96
2019-06-15T05:50:02.616Z,1010.0
2019-06-15T05:55:03.133Z,1009.93
2019-06-15T06:00:03.025Z,1009.98
2019-06-15T06:05:02.603Z,1010.03
2019-06-15T06:10:03.065Z,1010.06
2019-06-15T06:15:02.506Z,1009.98
2019-06-15T06:20:03.006Z,1010.03
2019-06-15T06:25:02.514Z,1010.05
2019-06-15T06:30:03.454Z,1010.1
2019-06-15T06:35:03.095Z,1010.12
2019-06-15T06:40:02.615Z,1010.2
2019-06-15T06:45:03.170Z,1010.27
2019-06-15T06:50:02.708Z,1010.45
2019-06-15T06:55:03.229Z,1010.56
2019-06-15T07:00:02.748Z,1010.56
2019-06-15T07:05:03.290Z,1010.64
2019-06-15T07:10:02.749Z,1010.7
2019-06-15T07:15:04.857Z,1010.71
2019-06-15T07:20:02.516Z,1010.64
2019-06-15T07:25:03.013Z,1010.63
2019-06-15T07:30:02.569Z,1010.57
2019-06-15T07:35:03.097Z,1010.4
2019-06-15T07:40:02.600Z,1010.32
2019-06-15T07:45:03.160Z,1010.34
2019-06-15T07:50:02.674Z,1010.29
2019-06-15T07:55:03.127Z,1010.24
2019-06-15T08:00:02.655Z,1010.34
2019-06-15T08:05:03.148Z,1010.34
2019-06-15T08:10:02.628Z,1010.34
2019-06-15T08:15:03.147Z,1010.51
2019-06-15T08:20:02.721Z,1010.57
2019-06-15T08:25:03.224Z,1010.55
2019-06-15T08:30:02.114Z,1010.6
2019-06-15T08:35:01.874Z,1010.64
2019-06-15T08:40:03.432Z,1010.7
2019-06-15T08:45:03.051Z,1010.83
2019-06-15T08:50:02.588Z,1010.89
2019-06-15T08:55:03.137Z,1010.97
2019-06-15T09:00:03.173Z,1010.82
2019-06-15T09:05:02.800Z,1010.86
2019-06-15T09:10:03.304Z,1010.9
2019-06-15T09:15:02.969Z,1010.99
2019-06-15T09:20:02.479Z,1011.01
2019-06-15T09:25:02.989Z,1011.01
2019-06-15T09:30:02.565Z,1011.01
2019-06-15T09:35:03.069Z,1011.3
2019-06-15T09:40:02.624Z,1011.44
2019-06-15T09:45:03.152Z,1011.8
2019-06-15T09:50:02.686Z,1011.85
2019-06-15T09:55:03.187Z,1012.11
2019-06-15T10:00:03.051Z,1012.06
2019-06-15T10:05:02.568Z,1012.21
2019-06-15T10:10:03.099Z,1012.31
2019-06-15T10:15:02.644Z,1012.34
2019-06-15T10:20:03.162Z,1012.42
2019-06-15T10:25:02.788Z,1012.41
2019-06-15T10:30:03.327Z,1012.54
2019-06-15T10:35:02.824Z,1012.76
2019-06-15T10:40:03.402Z,1012.75
2019-06-15T10:45:02.909Z,1013.0
2019-06-15T10:50:03.366Z,1013.03
2019-06-15T10:55:02.877Z,1013.04
2019-06-15T11:00:03.327Z,1013.23
2019-06-15T11:05:02.894Z,1013.32
2019-06-15T11:10:03.424Z,1013.51
2019-06-15T11:15:02.932Z,1013.44
2019-06-15T11:20:03.490Z,1013.48
2019-06-15T11:25:03.074Z,1013.61
2019-06-15T11:30:13.112Z,1013.6
2019-06-15T11:35:02.884Z,1013.74
2019-06-15T11:40:03.396Z,1013.71
2019-06-15T11:45:02.890Z,1013.74
2019-06-15T11:50:03.336Z,1013.8
2019-06-15T11:55:02.855Z,1013.95
2019-06-15T12:00:03.406Z,1013.95
2019-06-15T12:05:02.931Z,1013.99
2019-06-15T12:10:03.528Z,1014.05
2019-06-15T12:15:03.142Z,1014.07
2019-06-15T12:20:02.760Z,1014.17
2019-06-15T12:25:03.373Z,1014.17
2019-06-15T12:30:02.863Z,1014.15
2019-06-15T12:35:03.363Z,1014.13
2019-06-15T12:40:02.890Z,1014.14
2019-06-15T12:45:03.418Z,1014.1
2019-06-15T12:50:02.958Z,1014.11
2019-06-15T12:55:02.438Z,1014.17
2019-06-15T13:00:02.989Z,1014.12
2019-06-15T13:05:02.511Z,1014.11
2019-06-15T13:10:03.088Z,1014.12
2019-06-15T13:15:02.601Z,1014.16
2019-06-15T13:20:03.171Z,1014.11
2019-06-15T13:25:02.870Z,1014.11
2019-06-15T13:30:03.390Z,1014.18
2019-06-15T13:35:02.855Z,1014.16
2019-06-15T13:40:03.510Z,1014.18
2019-06-15T13:45:03.182Z,1014.21
2019-06-15T13:50:01.892Z,1014.25
2019-06-15T13:55:02.544Z,1014.32
2019-06-15T14:00:03.124Z,1014.26
2019-06-15T14:05:02.591Z,1014.35
2019-06-15T14:10:03.141Z,1014.34
2019-06-15T14:15:02.625Z,1014.47
2019-06-15T14:20:03.231Z,1014.46
2019-06-15T14:25:02.724Z,1014.63
2019-06-15T14:30:03.359Z,1014.64
2019-06-15T14:35:02.890Z,1014.53
2019-06-15T14:40:03.522Z,1014.54
2019-06-15T14:45:03.053Z,1014.55
2019-06-15T14:50:02.589Z,1014.55
2019-06-15T14:55:03.015Z,1014.51
2019-06-15T15:00:05.840Z,1014.5
2019-06-15T15:05:02.982Z,1014.65
2019-06-15T15:10:02.446Z,1014.67
2019-06-15T15:15:02.973Z,1014.68
2019-06-15T15:20:04.020Z,1014.75
2019-06-15T15:25:02.613Z,1014.71
2019-06-15T15:30:03.148Z,1014.88
2019-06-15T15:35:02.677Z,1014.86
2019-06-15T15:40:03.121Z,1014.95
2019-06-15T15:45:02.642Z,1014.87
2019-06-15T15:50:03.401Z,1014.84
2019-06-15T15:55:03.176Z,1014.77
2019-06-15T16:00:07.215Z,1014.9
2019-06-15T16:05:02.969Z,1014.78
2019-06-15T16:10:02.417Z,1014.82
2019-06-15T16:15:02.845Z,1014.85
2019-06-15T16:20:03.410Z,1014.87
2019-06-15T16:25:02.896Z,1014.79
2019-06-15T16:30:06.326Z,1014.87
2019-06-15T16:35:03.401Z,1014.88
2019-06-15T16:40:02.091Z,1014.89
2019-06-15T16:45:02.914Z,1014.81
2019-06-15T16:50:03.513Z,1014.84
2019-06-15T16:55:02.976Z,1014.78
2019-06-15T17:00:02.549Z,1014.82
2019-06-15T17:05:03.058Z,1014.85
2019-06-15T17:10:02.523Z,1014.94
2019-06-15T17:15:03.161Z,1014.99
2019-06-15T17:20:02.661Z,1015.0
2019-06-15T17:25:05.943Z,1014.92
2019-06-15T17:30:02.618Z,1014.9
2019-06-15T17:35:03.162Z,1014.94
2019-06-15T17:40:02.666Z,1014.96
2019-06-15T17:45:03.134Z,1014.92
2019-06-15T17:50:02.587Z,1014.95
2019-06-15T17:55:03.086Z,1014.96
2019-06-15T18:00:02.709Z,1014.93
2019-06-15T18:05:03.373Z,1014.81
2019-06-15T18:10:02.871Z,1014.79
2019-06-15T18:15:03.456Z,1014.9
2019-06-15T18:20:02.939Z,1014.97
2019-06-15T18:25:03.384Z,1014.95
2019-06-15T18:30:02.822Z,1014.91
2019-06-15T18:35:06.015Z,1014.97
2019-06-15T18:40:02.652Z,1015.02
2019-06-15T18:45:03.126Z,1015.13
2019-06-15T18:50:02.657Z,1015.08
2019-06-15T18:55:03.212Z,1015.12
2019-06-15T19:00:02.689Z,1015.11
2019-06-15T19:05:03.264Z,1015.21
2019-06-15T19:10:02.764Z,1015.17
2019-06-15T19:15:03.309Z,1015.2
2019-06-15T19:20:02.859Z,1015.22
2019-06-15T19:25:03.372Z,1015.39
2019-06-15T19:30:02.885Z,1015.37
2019-06-15T19:35:03.433Z,1015.36
2019-06-15T19:40:02.117Z,1015.34
2019-06-15T19:45:02.639Z,1015.46
2019-06-15T19:50:03.129Z,1015.55
2019-06-15T19:55:02.561Z,1015.7
2019-06-15T20:00:03.059Z,1015.89
2019-06-15T20:05:03.871Z,1015.92
2019-06-15T20:10:02.595Z,1015.95
2019-06-15T20:15:03.199Z,1015.87
2019-06-15T20:20:02.901Z,1015.94
2019-06-15T20:25:03.423Z,1016.07
2019-06-15T20:30:02.878Z,1016.2
2019-06-15T20:35:16.201Z,1016.18
2019-06-15T20:40:03.078Z,1016.09
2019-06-15T20:45:02.680Z,1016.09
2019-06-15T20:50:03.275Z,1016.07
2019-06-15T20:55:02.832Z,1016.19
2019-06-15T21:00:06.049Z,1016.16
2019-06-15T21:05:02.847Z,1016.15
2019-06-15T21:10:03.381Z,1016.13
2019-06-15T21:15:02.876Z,1016.1
2019-06-15T21:20:03.461Z,1016.13
2019-06-15T21:25:03.083Z,1016.26
2019-06-15T21:30:02.562Z,1016.37
2019-06-15T21:35:03.113Z,1016.44
2019-06-15T21:40:02.628Z,1016.56
2019-06-15T21:45:03.186Z,1016.7
2019-06-15T21:50:02.827Z,1016.68
2019-06-15T21:55:03.296Z,1016.72
2019-06-15T22:00:03.216Z,1016.68
2019-06-15T22:05:02.798Z,1016.69
2019-06-15T22:10:03.362Z,1016.69
2019-06-15T22:15:02.852Z,1016.82
2019-06-15T22:20:03.317Z,1016.73
2019-06-15T22:25:03.005Z,1016.74
2019-06-15T22:30:02.779Z,1016.73
2019-06-15T22:35:02.495Z,1016.71
2019-06-15T22:40:02.312Z,1016.71
2019-06-15T22:45:03.075Z,1016.65
2019-06-15T22:50:02.598Z,1016.77
2019-06-15T22:55:05.906Z,1016.94
2019-06-15T23:00:08.088Z,1016.95
2019-06-15T23:05:03.089Z,1017.02
2019-06-15T23:10:02.546Z,1017.14
2019-06-15T23:15:03.021Z,1017.14
2019-06-15T23:20:02.481Z,1017.22
2019-06-15T23:25:02.994Z,1017.26
2019-06-15T23:30:02.443Z,1017.26
2019-06-15T23:35:02.923Z,1017.37
2019-06-15T23:40:03.375Z,1017.42
2019-06-15T23:45:02.823Z,1017.36
2019-06-15T23:50:03.264Z,1017.42
2019-06-15T23:55:02.706Z,1017.47
